Time;durP1;ratioP1;P1;durP2;ratioP2;P2;SDS_P1;SDS_P2;PMS_P1;PMS_P2;Temp;Humidity;BMP_temperature;BMP_pressure;BME280_temperature;BME280_humidity;BME280_pressure;Samples;Min_cycle;Max_cycle;Signal;HPM_P1;HPM_P2
2021/11/03 00:13:30;;;;;;;0.20;0.20;;;6.70;94.50;5.30;99997.00;;;;31262605;28;20295;-69
2021/11/03 00:28:31;;;;;;;0.30;0.30;;;6.50;94.20;5.10;100008.00;;;;31258624;28;20132;-69
2021/11/03 00:43:34;;;;;;;0.13;0.13;;;6.40;94.00;5.10;100008.00;;;;31209897;28;21097;-69
2021/11/03 00:58:43;;;;;;;0.20;0.20;;;6.30;94.40;4.90;99992.00;;;;31235231;28;20041;-70
2021/11/03 01:13:46;;;;;;;0.20;0.20;;;6.20;94.20;4.70;99985.00;;;;31249655;28;20094;-69
2021/11/03 01:28:47;;;;;;;0.10;0.10;;;6.20;94.20;4.60;99989.00;;;;31229175;28;20576;-68
2021/11/03 01:44:09;;;;;;;0.20;0.20;;;5.70;93.40;4.40;99983.00;;;;31243000;28;20414;-69
2021/11/03 01:59:32;;;;;;;0.20;0.20;;;5.70;93.80;4.20;99968.00;;;;31256879;28;20072;-69
2021/11/03 02:14:34;;;;;;;0.28;0.28;;;5.60;94.80;4.00;99949.00;;;;31225871;28;20045;-70
2021/11/03 02:29:38;;;;;;;0.20;0.20;;;5.40;93.80;3.80;99957.00;;;;31242261;28;20057;-69
2021/11/03 02:44:43;;;;;;;0.20;0.20;;;5.20;94.00;3.90;99949.00;;;;31231400;28;20048;-69
2021/11/03 02:59:47;;;;;;;0.20;0.20;;;5.30;94.30;4.00;99953.00;;;;31228724;28;20156;-70
2021/11/03 03:14:53;;;;;;;0.22;0.22;;;5.40;94.70;4.00;99952.00;;;;31251003;28;20052;-70
2021/11/03 03:30:01;;;;;;;0.20;0.20;;;5.30;94.70;4.00;99965.00;;;;31242649;28;20077;-70
2021/11/03 03:45:04;;;;;;;0.30;0.30;;;5.30;94.30;4.00;99968.00;;;;31252017;28;20573;-69
2021/11/03 04:00:13;;;;;;;0.20;0.20;;;5.30;94.30;3.90;99966.00;;;;31259206;28;20507;-69
2021/11/03 04:15:18;;;;;;;0.20;0.20;;;5.20;94.60;3.90;99986.00;;;;31177210;28;20147;-70
2021/11/03 04:30:22;;;;;;;0.30;0.30;;;5.30;94.30;3.80;99984.00;;;;31242616;28;20107;-69
2021/11/03 04:45:26;;;;;;;0.30;0.30;;;4.90;94.00;3.80;99998.00;;;;31254444;28;20526;-68
2021/11/03 05:00:35;;;;;;;0.20;0.20;;;5.10;94.60;3.70;100008.00;;;;31254125;28;20052;-69
2021/11/03 05:15:39;;;;;;;0.20;0.20;;;5.10;94.50;3.70;99998.00;;;;31234487;28;20503;-68
2021/11/03 05:30:41;;;;;;;0.20;0.20;;;5.10;94.10;3.70;100015.00;;;;31221256;28;20110;-69
2021/11/03 05:45:42;;;;;;;0.20;0.20;;;5.00;94.40;3.60;100011.00;;;;31190413;28;20053;-69
2021/11/03 06:00:44;;;;;;;0.20;0.20;;;5.40;95.30;3.70;100001.00;;;;31048047;28;20046;-68
2021/11/03 06:15:45;;;;;;;0.20;0.20;;;4.90;94.70;3.80;99996.00;;;;31067001;28;20056;-69
2021/11/03 06:30:47;;;;;;;0.30;0.30;;;5.10;94.70;3.80;99997.00;;;;31108111;28;20485;-69
2021/11/03 06:45:48;;;;;;;0.20;0.20;;;5.00;94.40;3.70;99997.00;;;;31206211;28;20044;-69
2021/11/03 07:00:53;;;;;;;0.20;0.20;;;5.00;95.00;3.70;100019.00;;;;31351095;28;20409;-69
2021/11/03 07:15:56;;;;;;;0.20;0.20;;;5.80;95.60;3.80;100006.00;;;;31358998;28;20160;-69
2021/11/03 07:30:57;;;;;;;0.28;0.28;;;5.30;95.00;4.00;100017.00;;;;31297200;28;20049;-69
2021/11/03 07:45:58;;;;;;;0.20;0.20;;;5.50;95.50;4.30;100012.00;;;;31299851;28;20492;-69
2021/11/03 08:01:01;;;;;;;0.20;0.20;;;5.50;95.80;4.60;99996.00;;;;31261337;28;20056;-69
2021/11/03 08:16:03;;;;;;;0.20;0.20;;;7.00;95.80;5.00;100012.00;;;;31253158;28;20507;-69
2021/11/03 08:31:08;;;;;;;0.20;0.20;;;6.40;94.50;5.30;100016.00;;;;31384880;28;20514;-69
2021/11/03 08:46:10;;;;;;;0.20;0.20;;;6.60;94.40;5.50;100014.00;;;;31371928;28;20134;-69
2021/11/03 09:01:14;;;;;;;0.20;0.20;;;6.70;94.70;5.70;100033.00;;;;31285310;28;20052;-69
2021/11/03 09:16:20;;;;;;;0.17;0.17;;;6.90;95.00;6.00;100043.00;;;;31316965;28;20049;-68
2021/11/03 09:31:24;;;;;;;0.10;0.10;;;7.40;94.60;6.30;100056.00;;;;31366069;28;20056;-69
2021/11/03 09:46:33;;;;;;;0.20;0.20;;;7.60;94.40;6.50;100063.00;;;;31292667;28;20044;-69
2021/11/03 10:02:04;;;;;;;0.32;0.32;;;7.60;94.60;6.50;100066.00;;;;31233908;28;20037;-68
2021/11/03 10:17:26;;;;;;;0.20;0.20;;;7.60;94.00;6.60;100063.00;;;;31370423;28;20072;-69
2021/11/03 10:32:39;;;;;;;0.20;0.20;;;8.00;94.80;6.90;100058.00;;;;31331011;28;20521;-69
2021/11/03 10:47:44;;;;;;;0.20;0.20;;;8.20;93.60;7.10;100063.00;;;;31356746;28;20037;-69
2021/11/03 11:03:09;;;;;;;0.20;0.20;;;8.20;93.70;7.00;100048.00;;;;31394278;28;20138;-69
2021/11/03 11:18:34;;;;;;;0.50;0.50;;;8.10;94.00;7.10;100037.00;;;;31394051;28;20048;-69
2021/11/03 11:34:12;;;;;;;0.20;0.20;;;8.40;94.10;7.50;100055.00;;;;31378962;28;20064;-68
2021/11/03 11:49:43;;;;;;;0.20;0.20;;;8.60;93.30;7.60;100034.00;;;;31300184;28;20036;-68
2021/11/03 12:04:44;;;;;;;0.20;0.20;;;8.60;93.70;7.80;100044.00;;;;31386611;28;20051;-68
2021/11/03 12:19:56;;;;;;;0.20;0.20;;;8.80;93.70;8.00;100029.00;;;;31368009;28;20084;-69
2021/11/03 12:35:18;;;;;;;0.45;0.45;;;9.20;93.20;8.10;100034.00;;;;31389172;28;20051;-68
2021/11/03 12:50:39;;;;;;;0.95;0.95;;;9.20;92.80;8.20;100050.00;;;;31396089;28;20519;-68
2021/11/03 13:05:48;;;;;;;0.60;0.60;;;9.30;92.60;8.20;100048.00;;;;31385831;28;20048;-68
2021/11/03 13:21:08;;;;;;;0.20;0.20;;;9.40;92.10;8.30;100047.00;;;;31363379;28;20049;-68
2021/11/03 13:36:30;;;;;;;0.20;0.20;;;9.30;92.40;8.20;100030.00;;;;31374998;28;20129;-68
2021/11/03 13:51:40;;;;;;;0.20;0.20;;;9.10;92.60;8.00;100031.00;;;;31358850;28;20052;-69
2021/11/03 14:07:11;;;;;;;0.20;0.20;;;9.10;93.10;8.20;100061.00;;;;31367676;28;20930;-69
2021/11/03 14:22:31;;;;;;;0.20;0.20;;;9.20;93.30;8.10;100049.00;;;;31385461;28;20139;-68
2021/11/03 14:37:33;;;;;;;0.20;0.20;;;9.20;92.80;8.20;100074.00;;;;31383244;28;20084;-69
2021/11/03 14:52:38;;;;;;;0.20;0.20;;;9.30;92.70;8.20;100058.00;;;;31366053;28;20868;-69
2021/11/03 15:07:39;;;;;;;0.20;0.20;;;9.30;92.80;8.10;100069.00;;;;31383131;28;20052;-68
2021/11/03 15:22:41;;;;;;;0.20;0.20;;;9.10;92.70;7.90;100069.00;;;;31396707;28;20423;-69
2021/11/03 15:37:44;;;;;;;1.00;1.00;;;9.00;92.90;7.80;100085.00;;;;31380211;28;20381;-68
2021/11/03 15:52:46;;;;;;;0.10;0.10;;;8.80;93.20;7.60;100091.00;;;;31370031;28;20037;-68
2021/11/03 16:07:50;;;;;;;0.20;0.20;;;8.80;93.40;7.50;100108.00;;;;31393958;28;20484;-68
2021/11/03 16:22:56;;;;;;;0.20;0.20;;;8.60;93.60;7.40;100095.00;;;;31375776;28;20522;-68
2021/11/03 16:38:05;;;;;;;0.20;0.20;;;8.50;93.80;7.30;100105.00;;;;31377391;28;20069;-69
2021/11/03 16:53:09;;;;;;;0.20;0.20;;;8.40;93.70;7.20;100107.00;;;;31363579;28;20036;-69
2021/11/03 17:08:38;;;;;;;0.20;0.20;;;8.40;94.10;7.00;100108.00;;;;31364437;28;20037;-69
2021/11/03 17:23:43;;;;;;;0.20;0.20;;;9.20;94.40;7.10;100130.00;;;;31376671;28;20040;-70
2021/11/03 17:38:51;;;;;;;0.20;0.20;;;8.30;93.90;7.10;100131.00;;;;31375507;28;20120;-70
2021/11/03 17:53:56;;;;;;;0.22;0.22;;;8.30;93.90;6.90;100153.00;;;;31346672;28;20098;-70
2021/11/03 18:08:58;;;;;;;0.40;0.40;;;8.10;94.00;6.90;100168.00;;;;31349921;28;20071;-69
2021/11/03 18:24:01;;;;;;;0.50;0.50;;;8.00;94.40;6.80;100191.00;;;;31354245;28;20033;-70
2021/11/03 18:39:05;;;;;;;0.20;0.20;;;7.90;94.30;6.70;100182.00;;;;31383007;28;20044;-70
2021/11/03 18:54:12;;;;;;;0.20;0.20;;;7.90;94.50;6.60;100198.00;;;;31383411;28;20388;-70
2021/11/03 19:09:26;;;;;;;0.20;0.20;;;7.90;95.10;6.60;100211.00;;;;31377993;28;20055;-70
2021/11/03 19:24:51;;;;;;;0.20;0.20;;;7.80;95.10;6.50;100214.00;;;;31369311;28;20494;-69
2021/11/03 19:39:53;;;;;;;0.20;0.20;;;7.70;94.40;6.30;100231.00;;;;31366017;28;20045;-69
2021/11/03 19:54:54;;;;;;;0.28;0.28;;;7.50;94.70;6.10;100222.00;;;;31361687;28;20045;-68
2021/11/03 20:09:58;;;;;;;0.20;0.20;;;8.20;95.60;6.10;100222.00;;;;31384716;28;20583;-69
2021/11/03 20:25:03;;;;;;;1.05;1.05;;;7.30;95.50;6.10;100234.00;;;;31362009;28;20066;-69
2021/11/03 20:40:04;;;;;;;0.20;0.20;;;7.40;95.10;6.10;100248.00;;;;31355316;28;20508;-68
2021/11/03 20:55:07;;;;;;;0.20;0.20;;;7.20;94.80;5.90;100243.00;;;;31352363;28;20043;-69
2021/11/03 21:10:09;;;;;;;0.22;0.22;;;7.10;95.30;6.10;100253.00;;;;31381392;28;20044;-69
2021/11/03 21:25:12;;;;;;;0.20;0.20;;;7.30;96.00;5.90;100267.00;;;;31359970;28;20052;-69
2021/11/03 21:40:13;;;;;;;0.10;0.10;;;7.20;95.10;6.20;100284.00;;;;31335753;28;20076;-69
2021/11/03 21:55:14;;;;;;;0.20;0.20;;;7.20;94.80;5.90;100281.00;;;;31252042;28;20072;-69
2021/11/03 22:10:16;;;;;;;0.20;0.20;;;8.00;95.30;5.90;100267.00;;;;31240130;28;20037;-69
2021/11/03 22:25:19;;;;;;;0.30;0.30;;;7.10;95.80;6.00;100274.00;;;;31250220;28;20456;-69
2021/11/03 22:40:21;;;;;;;0.20;0.20;;;7.10;96.00;6.10;100280.00;;;;31241921;28;20049;-69
2021/11/03 22:55:24;;;;;;;0.20;0.20;;;7.20;95.80;6.20;100288.00;;;;31340413;28;20097;-69
2021/11/03 23:10:26;;;;;;;0.20;0.20;;;7.30;96.30;6.20;100291.00;;;;31352521;28;21167;-69
2021/11/03 23:25:27;;;;;;;0.25;0.25;;;7.30;96.10;6.30;100309.00;;;;31348260;28;20044;-69
2021/11/03 23:40:33;;;;;;;0.28;0.28;;;7.50;95.50;6.50;100290.00;;;;31259899;28;20048;-69
2021/11/03 23:55:34;;;;;;;0.20;0.20;;;7.60;95.50;6.60;100300.00;;;;31360857;28;20788;-69
